Time;durP1;ratioP1;P1;durP2;ratioP2;P2;SDS_P1;SDS_P2;PMS_P1;PMS_P2;Temp;Humidity;BMP_temperature;BMP_pressure;BME280_temperature;BME280_humidity;BME280_pressure;Samples;Min_cycle;Max_cycle;Signal;HPM_P1;HPM_P2
2023/09/16 00:00:08;;;;;;;8.30;7.20;;;;;;;18.29;95.93;97991.25;5066619;23;20616;-89
2023/09/16 00:02:11;;;;;;;9.10;7.50;;;;;;;18.28;96.37;97988.78;5090233;23;20613;-90
2023/09/16 00:04:14;;;;;;;8.33;7.47;;;;;;;18.28;96.58;97994.06;5090500;23;21151;-90
2023/09/16 00:06:17;;;;;;;12.03;7.30;;;;;;;18.27;96.87;97989.78;5090523;23;20583;-90
2023/09/16 00:08:22;;;;;;;9.00;8.10;;;;;;;18.26;96.96;98002.13;5090279;23;20595;-90
2023/09/16 00:10:25;;;;;;;8.03;7.20;;;;;;;18.25;96.41;98004.94;5090454;23;20971;-90
2023/09/16 00:12:28;;;;;;;9.30;7.50;;;;;;;18.22;96.96;98005.25;5090223;23;20588;-90
2023/09/16 00:14:31;;;;;;;8.90;6.70;;;;;;;18.16;96.60;98005.84;5089730;23;20688;-89
2023/09/16 00:16:34;;;;;;;7.83;6.90;;;;;;;18.14;97.31;98002.53;5065118;23;20664;-90
2023/09/16 00:18:38;;;;;;;8.37;7.53;;;;;;;18.12;96.70;98007.13;5089675;23;20639;-90
2023/09/16 00:20:41;;;;;;;7.70;6.90;;;;;;;18.09;96.76;98007.44;5066130;23;20584;-90
2023/09/16 00:22:44;;;;;;;8.97;6.97;;;;;;;18.05;96.23;98001.59;5066374;23;20593;-90
2023/09/16 00:24:48;;;;;;;7.87;7.07;;;;;;;18.05;96.83;98003.44;5116340;23;21147;-90
2023/09/16 00:26:52;;;;;;;7.97;6.93;;;;;;;18.02;96.75;98007.19;5090164;23;20627;-89
2023/09/16 00:29:11;;;;;;;7.73;6.77;;;;;;;17.99;96.80;98009.31;5066162;23;20856;-90
2023/09/16 00:34:41;;;;;;;7.70;6.40;;;;;;;17.82;96.23;97993.50;5112477;23;20549;-96
2023/09/16 00:44:19;;;;;;;7.17;6.47;;;;;;;17.67;95.71;97980.00;5086337;23;20557;-94
2023/09/16 00:47:55;;;;;;;6.73;6.13;;;;;;;17.65;96.48;97983.75;5057954;23;20597;-96
2023/09/16 01:03:04;;;;;;;9.20;6.57;;;;;;;17.57;98.42;97983.69;5119096;23;20646;-96
2023/09/16 01:05:14;;;;;;;8.33;7.17;;;;;;;17.54;97.41;97986.63;5093439;23;20923;-95
2023/09/16 01:07:18;;;;;;;8.93;6.40;;;;;;;17.52;97.58;97988.59;5093421;23;21149;-96
2023/09/16 01:09:22;;;;;;;11.33;7.77;;;;;;;17.53;96.98;97983.16;5069143;23;20588;-95
2023/09/16 01:11:25;;;;;;;7.93;7.13;;;;;;;17.51;97.82;97992.19;5068620;23;20639;-95
2023/09/16 01:13:29;;;;;;;7.67;6.67;;;;;;;17.48;96.93;97988.06;5070882;23;20600;-94
2023/09/16 01:15:36;;;;;;;8.30;6.60;;;;;;;17.47;97.30;97994.31;5070016;23;20589;-94
2023/09/16 01:17:44;;;;;;;8.57;6.70;;;;;;;17.46;97.16;97994.47;5070015;23;20745;-94
2023/09/16 01:19:52;;;;;;;6.70;6.00;;;;;;;17.44;97.31;97998.22;5069937;23;20590;-94
2023/09/16 01:21:56;;;;;;;8.40;7.50;;;;;;;17.43;97.36;98004.50;5094034;23;20618;-94
2023/09/16 01:24:16;;;;;;;7.50;6.70;;;;;;;17.40;97.12;97995.06;5069898;23;20687;-94
2023/09/16 01:26:22;;;;;;;7.50;6.70;;;;;;;17.40;98.23;97999.50;5069782;23;20684;-94
2023/09/16 01:28:25;;;;;;;7.67;6.87;;;;;;;17.40;98.22;97999.50;5069894;23;21098;-95
2023/09/16 01:30:30;;;;;;;7.43;6.20;;;;;;;17.40;97.17;97999.50;5069599;23;20971;-94
2023/09/16 01:32:42;;;;;;;7.40;6.37;;;;;;;17.41;97.45;97995.88;5069887;23;20585;-94
2023/09/16 01:34:49;;;;;;;7.13;6.43;;;;;;;17.41;97.79;98009.06;5069713;23;20640;-94
2023/09/16 01:36:53;;;;;;;7.40;6.67;;;;;;;17.35;96.97;97999.09;5069802;23;21033;-94
2023/09/16 01:39:00;;;;;;;7.43;6.50;;;;;;;17.36;97.38;97998.13;5070667;23;20656;-95
2023/09/16 01:41:03;;;;;;;6.80;6.10;;;;;;;17.33;97.31;98001.06;5070237;23;20589;-95
2023/09/16 01:43:08;;;;;;;8.17;7.30;;;;;;;17.30;98.27;98004.00;5069809;23;21181;-94
2023/09/16 01:45:12;;;;;;;8.00;7.00;;;;;;;17.32;97.18;98002.03;5070307;23;20579;-94
2023/09/16 01:47:15;;;;;;;7.77;6.90;;;;;;;17.31;97.41;97998.59;5069790;23;20574;-95
2023/09/16 01:49:18;;;;;;;8.20;6.73;;;;;;;17.33;98.13;98003.72;5069861;23;20581;-95
2023/09/16 01:51:24;;;;;;;7.00;6.30;;;;;;;17.32;97.40;98002.03;5069987;23;20698;-94
2023/09/16 01:53:27;;;;;;;8.23;6.73;;;;;;;17.29;97.73;97994.44;5069606;23;20637;-94
2023/09/16 01:55:30;;;;;;;9.87;7.40;;;;;;;17.31;97.45;98000.41;5069483;23;20943;-94
2023/09/16 01:57:34;;;;;;;9.10;7.30;;;;;;;17.30;98.32;97998.72;5069733;23;20576;-94
2023/09/16 01:59:39;;;;;;;9.27;6.67;;;;;;;17.28;97.91;97998.88;5069507;23;20672;-95
2023/09/16 02:01:43;;;;;;;8.20;6.30;;;;;;;17.25;98.00;98001.81;5069687;23;20610;-95
2023/09/16 02:03:47;;;;;;;7.63;6.83;;;;;;;17.23;97.68;98002.94;5068718;23;20711;-95
2023/09/16 02:05:50;;;;;;;13.47;6.93;;;;;;;17.20;98.40;98000.56;5069385;23;20577;-94
2023/09/16 02:07:53;;;;;;;9.13;6.97;;;;;;;17.18;98.43;97994.59;5069709;23;20579;-94
2023/09/16 02:09:57;;;;;;;7.27;6.53;;;;;;;17.17;97.85;97995.56;5069871;23;20969;-95
2023/09/16 02:12:00;;;;;;;8.20;6.90;;;;;;;17.12;97.28;97993.41;5069898;23;20621;-94
2023/09/16 02:14:04;;;;;;;7.07;6.03;;;;;;;17.12;96.91;97987.28;5069470;23;20585;-94
2023/09/16 02:16:11;;;;;;;7.40;6.57;;;;;;;17.11;98.32;97993.56;5069576;23;20625;-95
2023/09/16 02:18:14;;;;;;;7.60;6.40;;;;;;;17.08;97.62;97993.84;5069528;23;20577;-94
2023/09/16 02:20:20;;;;;;;8.00;6.63;;;;;;;17.08;98.21;98004.41;5069965;23;20670;-95
2023/09/16 02:22:23;;;;;;;9.30;6.90;;;;;;;17.05;98.05;98000.22;5069166;23;20619;-96
2023/09/16 02:24:27;;;;;;;10.20;7.17;;;;;;;17.07;98.56;98005.34;5068629;23;21127;-96
2023/09/16 02:26:30;;;;;;;9.10;7.00;;;;;;;17.06;98.57;98011.59;5068251;23;20572;-95
2023/09/16 02:28:33;;;;;;;6.87;6.13;;;;;;;17.05;98.10;98009.97;5068238;23;20580;-95
2023/09/16 02:30:37;;;;;;;7.40;6.57;;;;;;;17.06;98.46;98016.88;5068088;23;20592;-95
2023/09/16 02:32:42;;;;;;;7.13;6.43;;;;;;;17.00;98.38;98010.38;5068449;23;21021;-95
2023/09/16 02:34:45;;;;;;;7.30;6.27;;;;;;;17.04;97.96;98013.56;5068082;23;20573;-95
2023/09/16 02:36:48;;;;;;;7.33;6.63;;;;;;;16.99;98.00;98011.34;5067894;23;20608;-95
2023/09/16 02:38:55;;;;;;;7.13;6.13;;;;;;;16.95;98.24;98010.97;5068366;23;20585;-95
2023/09/16 02:41:03;;;;;;;9.83;6.73;;;;;;;16.94;98.33;98025.94;5067952;23;20580;-96
2023/09/16 02:43:09;;;;;;;8.33;6.80;;;;;;;16.94;98.02;98028.56;5068250;23;20615;-95
2023/09/16 02:45:13;;;;;;;7.73;6.93;;;;;;;16.90;97.58;98019.31;5068250;23;20599;-95
2023/09/16 02:47:17;;;;;;;8.00;6.93;;;;;;;16.89;97.96;98017.63;5068098;23;20588;-95
2023/09/16 02:49:21;;;;;;;6.43;5.83;;;;;;;16.92;97.72;98034.97;5067770;23;20780;-95
2023/09/16 02:51:25;;;;;;;8.30;6.87;;;;;;;16.89;98.80;98030.00;5092864;23;20681;-95
2023/09/16 02:53:28;;;;;;;9.57;6.57;;;;;;;16.88;98.24;98026.50;5068165;23;20583;-95
2023/09/16 02:55:32;;;;;;;7.67;6.57;;;;;;;16.88;97.98;98028.31;5067891;23;20614;-95
2023/09/16 02:57:36;;;;;;;7.47;6.77;;;;;;;16.89;97.80;98025.53;5068081;23;20579;-95
2023/09/16 02:59:39;;;;;;;8.13;6.50;;;;;;;16.88;97.22;98029.16;5068505;23;20579;-95
2023/09/16 03:01:43;;;;;;;7.33;6.50;;;;;;;16.89;98.90;98037.91;5068448;23;20590;-96
2023/09/16 03:03:47;;;;;;;10.73;7.10;;;;;;;16.87;99.04;98038.03;5067981;23;20689;-96
2023/09/16 03:05:51;;;;;;;9.87;6.60;;;;;;;16.86;97.55;98032.91;5068010;23;20651;-96
2023/09/16 03:07:55;;;;;;;7.60;6.20;;;;;;;16.84;98.21;98033.06;5068572;23;21126;-95
2023/09/16 03:09:58;;;;;;;7.30;6.40;;;;;;;16.83;98.55;98033.22;5067042;23;20650;-94
2023/09/16 03:12:01;;;;;;;7.70;6.50;;;;;;;16.79;97.49;98034.47;5067146;23;20571;-95
2023/09/16 03:14:04;;;;;;;7.43;6.27;;;;;;;16.80;97.61;98036.13;5066759;23;20921;-95
2023/09/16 03:16:15;;;;;;;7.40;6.60;;;;;;;16.78;98.28;98020.47;5067535;23;21236;-95
2023/09/16 03:18:21;;;;;;;7.37;6.57;;;;;;;16.78;98.78;98023.09;5067811;23;20679;-95
2023/09/16 03:20:24;;;;;;;8.50;6.23;;;;;;;16.78;98.88;98031.00;5066582;23;20683;-95
2023/09/16 03:22:29;;;;;;;7.50;6.10;;;;;;;16.78;98.32;98030.16;5066902;23;20589;-96
2023/09/16 03:24:33;;;;;;;7.67;6.93;;;;;;;16.74;98.50;98028.81;5067283;23;20593;-95
2023/09/16 03:26:39;;;;;;;8.90;6.67;;;;;;;16.72;97.51;98030.75;5066379;23;20583;-96
2023/09/16 03:28:46;;;;;;;6.87;6.17;;;;;;;16.62;97.88;98028.13;5067182;23;20618;-95
2023/09/16 03:30:51;;;;;;;9.90;6.80;;;;;;;16.61;98.66;98030.91;5066026;23;20576;-95
2023/09/16 03:32:55;;;;;;;7.43;6.23;;;;;;;16.58;97.74;98026.78;5068198;23;20606;-93
2023/09/16 03:34:58;;;;;;;6.90;6.20;;;;;;;16.55;97.83;98026.22;5068624;23;20995;-93
2023/09/16 03:37:01;;;;;;;7.80;6.17;;;;;;;16.55;97.39;98013.91;5068465;23;20582;-93
2023/09/16 03:39:07;;;;;;;7.20;6.00;;;;;;;16.57;97.20;98030.38;5068636;23;20615;-93
2023/09/16 03:41:10;;;;;;;11.03;9.70;;;;;;;16.56;99.40;98026.06;5068701;23;21101;-93
2023/09/16 03:43:13;;;;;;;7.33;6.57;;;;;;;16.56;98.22;98023.44;5068510;23;21178;-93
2023/09/16 03:45:17;;;;;;;8.43;6.50;;;;;;;16.55;98.90;98019.16;5068518;23;20950;-93
2023/09/16 03:47:32;;;;;;;7.17;6.47;;;;;;;16.56;98.02;98022.63;5068621;23;20603;-93
2023/09/16 03:49:36;;;;;;;7.30;6.43;;;;;;;16.57;98.50;98024.28;5068820;23;20573;-93
2023/09/16 03:51:40;;;;;;;7.47;6.60;;;;;;;16.54;98.27;98014.84;5068401;23;20614;-93
2023/09/16 03:53:45;;;;;;;7.97;7.00;;;;;;;16.53;98.90;98010.56;5069506;23;20591;-93
2023/09/16 03:55:50;;;;;;;7.97;7.17;;;;;;;16.52;97.80;98014.19;5069819;23;20569;-93
2023/09/16 03:57:53;;;;;;;10.17;6.97;;;;;;;16.51;98.03;98007.25;5069958;23;20583;-93
2023/09/16 03:59:57;;;;;;;8.30;7.03;;;;;;;16.50;98.77;98009.19;5069842;23;20582;-93
2023/09/16 04:02:00;;;;;;;8.10;7.30;;;;;;;16.46;97.93;98006.00;5069849;23;20622;-93
2023/09/16 04:04:04;;;;;;;7.63;5.90;;;;;;;16.48;97.37;98008.50;5069630;23;20630;-92
2023/09/16 04:06:07;;;;;;;8.07;6.80;;;;;;;16.47;99.11;98012.13;5094482;23;20611;-93
2023/09/16 04:08:11;;;;;;;8.57;7.37;;;;;;;16.45;97.94;98006.16;5069880;23;21143;-93
2023/09/16 04:10:14;;;;;;;7.93;6.80;;;;;;;16.45;98.58;98008.78;5069948;23;20591;-93
2023/09/16 04:12:19;;;;;;;8.07;6.73;;;;;;;16.43;99.41;98000.19;5070241;23;20634;-93
2023/09/16 04:14:23;;;;;;;7.30;6.30;;;;;;;16.44;98.44;98004.50;5069759;23;20583;-93
2023/09/16 04:16:28;;;;;;;7.30;6.53;;;;;;;16.42;99.30;97998.53;5069809;23;20657;-93
2023/09/16 04:18:31;;;;;;;8.10;6.80;;;;;;;16.41;98.01;98002.16;5094298;23;20593;-93
2023/09/16 04:20:34;;;;;;;7.73;6.27;;;;;;;16.43;98.49;98008.09;5069612;23;20579;-93
2023/09/16 04:22:36;;;;;;;9.37;7.60;;;;;;;16.41;99.59;97996.88;5070166;23;20591;-93
2023/09/16 04:24:40;;;;;;;8.23;6.80;;;;;;;16.36;98.08;97996.50;5069591;23;20611;-93
2023/09/16 04:26:44;;;;;;;7.10;6.40;;;;;;;16.36;98.64;97988.59;5069643;23;20579;-93
2023/09/16 04:28:48;;;;;;;7.90;6.80;;;;;;;16.35;99.45;97986.94;5069763;23;20585;-93
2023/09/16 04:30:54;;;;;;;9.00;6.73;;;;;;;16.36;97.47;97985.97;5069792;23;20606;-93
2023/09/16 04:32:59;;;;;;;10.00;7.40;;;;;;;16.35;99.37;97984.28;5069708;23;20595;-93
2023/09/16 04:35:03;;;;;;;7.80;6.67;;;;;;;16.34;98.21;97986.09;5069793;23;20581;-93
2023/09/16 04:37:08;;;;;;;8.83;6.83;;;;;;;16.31;98.55;97981.13;5069732;23;20587;-94
2023/09/16 04:39:11;;;;;;;7.20;6.50;;;;;;;16.29;98.88;97982.22;5069799;23;21235;-93
2023/09/16 04:41:15;;;;;;;9.50;6.40;;;;;;;16.30;98.14;97979.47;5069867;23;20578;-93
2023/09/16 04:43:26;;;;;;;8.07;7.20;;;;;;;16.30;99.31;97984.72;5090642;23;20645;-96
2023/09/16 04:46:07;;;;;;;10.00;7.00;;;;;;;16.30;99.05;97978.63;5108696;23;20575;-95
2023/09/16 04:48:59;;;;;;;7.90;6.43;;;;;;;16.26;98.96;97979.88;5105768;23;20604;-96
2023/09/16 04:51:25;;;;;;;8.13;6.90;;;;;;;16.26;99.25;97982.50;5081641;23;20573;-93
2023/09/16 04:53:33;;;;;;;7.57;6.77;;;;;;;16.24;97.74;97979.19;5079260;23;20591;-95
2023/09/16 04:55:41;;;;;;;7.73;6.47;;;;;;;16.23;97.75;97975.72;5076877;23;20684;-94
2023/09/16 04:57:46;;;;;;;6.87;5.90;;;;;;;16.24;97.79;97976.56;5077830;23;20595;-96
2023/09/16 04:59:59;;;;;;;7.00;6.30;;;;;;;16.21;99.15;97977.66;5103585;23;20605;-96
2023/09/16 05:02:10;;;;;;;8.80;7.60;;;;;;;16.22;99.04;97989.88;5104294;23;20644;-96
2023/09/16 05:04:19;;;;;;;8.07;6.93;;;;;;;16.16;97.85;97976.41;5056061;23;20622;-96
2023/09/16 05:06:32;;;;;;;8.80;7.03;;;;;;;16.17;98.38;97986.78;5107166;23;20591;-93
2023/09/16 05:08:44;;;;;;;8.37;6.60;;;;;;;16.12;98.10;97975.03;5077798;23;20598;-94
2023/09/16 05:10:54;;;;;;;10.23;7.50;;;;;;;16.14;98.43;97970.44;5070485;23;21121;-89
2023/09/16 05:12:56;;;;;;;9.77;8.20;;;;;;;16.15;97.91;97969.50;5090041;23;20600;-89
2023/09/16 05:15:04;;;;;;;7.57;6.70;;;;;;;16.16;99.05;97968.50;5064883;23;20615;-89
2023/09/16 05:17:08;;;;;;;8.07;6.63;;;;;;;16.14;98.68;97966.00;5090220;23;20565;-88
2023/09/16 05:19:11;;;;;;;10.27;6.80;;;;;;;16.17;99.96;97973.63;5088656;23;21127;-89
2023/09/16 05:21:14;;;;;;;7.80;7.00;;;;;;;16.28;100.00;97977.94;5062862;23;21115;-89
2023/09/16 05:23:18;;;;;;;8.27;7.47;;;;;;;16.39;100.00;97975.13;5089088;23;20770;-89
2023/09/16 05:25:22;;;;;;;7.93;7.13;;;;;;;16.50;97.90;97974.97;5064209;23;20925;-89
2023/09/16 05:27:25;;;;;;;7.87;6.60;;;;;;;16.61;98.51;97965.06;5090203;23;20656;-89
2023/09/16 05:29:28;;;;;;;7.93;6.93;;;;;;;16.70;98.93;97966.84;5065119;23;20992;-89
2023/09/16 05:31:31;;;;;;;7.40;6.53;;;;;;;16.82;97.42;97968.31;5064460;23;21121;-88
2023/09/16 05:33:36;;;;;;;7.63;6.83;;;;;;;16.93;97.34;97968.09;5089888;23;20632;-89
2023/09/16 05:35:40;;;;;;;8.73;7.00;;;;;;;17.03;97.30;97969.72;5089947;23;20686;-89
2023/09/16 05:37:44;;;;;;;8.70;7.60;;;;;;;17.14;97.00;97972.19;5065721;23;20567;-89
2023/09/16 05:39:47;;;;;;;8.33;7.37;;;;;;;17.27;96.80;97975.31;5090058;23;20979;-89
2023/09/16 05:41:51;;;;;;;8.40;7.60;;;;;;;17.39;96.64;97971.47;5064429;23;20654;-89
2023/09/16 05:43:54;;;;;;;8.50;7.70;;;;;;;17.51;97.40;97973.75;5065840;23;20608;-89
2023/09/16 05:46:01;;;;;;;8.63;7.73;;;;;;;17.61;96.26;97972.69;5065621;23;20579;-89
2023/09/16 05:48:05;;;;;;;8.00;7.20;;;;;;;17.74;95.78;97978.44;5089868;23;20590;-90
2023/09/16 05:50:14;;;;;;;8.23;7.27;;;;;;;17.84;94.97;97988.91;5089666;23;20622;-88
2023/09/16 05:52:17;;;;;;;8.57;7.37;;;;;;;17.96;94.61;97986.69;5089651;23;20597;-89
2023/09/16 05:54:21;;;;;;;8.47;7.20;;;;;;;18.09;93.60;97987.13;5065761;23;20581;-89
2023/09/16 05:56:24;;;;;;;8.30;7.30;;;;;;;18.21;93.56;97985.94;5089661;23;20576;-89
2023/09/16 05:58:28;;;;;;;7.23;6.53;;;;;;;18.32;93.14;97979.56;5064715;23;20592;-90
2023/09/16 06:00:31;;;;;;;9.70;7.70;;;;;;;18.41;91.82;97980.28;5064741;23;21025;-89
2023/09/16 06:02:38;;;;;;;9.70;7.90;;;;;;;18.53;91.76;97980.88;5065353;23;20671;-89
2023/09/16 06:04:42;;;;;;;7.20;6.50;;;;;;;18.63;91.11;97984.25;5065174;23;20665;-90
2023/09/16 06:06:49;;;;;;;11.60;7.80;;;;;;;18.71;91.69;97982.44;5065324;23;20586;-89
2023/09/16 06:08:51;;;;;;;8.70;7.33;;;;;;;18.84;92.31;97979.38;5090198;23;20572;-89
2023/09/16 06:10:56;;;;;;;8.70;7.80;;;;;;;18.97;90.65;97988.53;5089479;23;20614;-89
2023/09/16 06:13:00;;;;;;;8.33;7.00;;;;;;;19.06;89.51;97988.44;5089845;23;20808;-89
2023/09/16 06:15:03;;;;;;;9.33;7.27;;;;;;;19.19;89.53;97993.28;5114553;23;20616;-89
2023/09/16 06:17:06;;;;;;;8.80;7.40;;;;;;;19.27;90.39;97982.72;5088552;23;20582;-89
2023/09/16 06:19:10;;;;;;;7.87;7.03;;;;;;;19.37;90.40;97992.19;5090095;23;20586;-89
2023/09/16 06:21:17;;;;;;;10.10;8.00;;;;;;;19.51;90.01;97997.66;5104283;23;20699;-95
2023/09/16 06:23:36;;;;;;;7.97;6.90;;;;;;;19.58;88.53;97995.22;5086663;23;20596;-95
2023/09/16 06:25:47;;;;;;;8.70;7.90;;;;;;;19.71;88.33;97999.03;5105872;23;20665;-96
2023/09/16 06:27:53;;;;;;;8.60;7.70;;;;;;;19.85;89.07;98003.69;5056348;23;20677;-95
2023/09/16 06:29:57;;;;;;;8.37;7.47;;;;;;;19.95;87.99;98007.03;5069425;23;20579;-93
2023/09/16 06:32:01;;;;;;;8.03;7.23;;;;;;;20.11;88.47;98007.88;5068288;23;20688;-96
2023/09/16 06:34:07;;;;;;;9.37;7.73;;;;;;;20.17;88.60;98004.56;5049691;23;20583;-96
2023/09/16 06:36:12;;;;;;;8.17;7.10;;;;;;;20.27;86.33;98007.06;5068803;23;20999;-96
2023/09/16 06:38:16;;;;;;;8.33;7.43;;;;;;;20.31;85.45;98001.22;5069642;23;20592;-94
2023/09/16 06:40:23;;;;;;;8.97;7.67;;;;;;;20.45;86.71;98000.56;5093965;23;20594;-96
2023/09/16 06:42:27;;;;;;;7.93;7.13;;;;;;;20.54;85.41;97996.91;5090464;23;20873;-95
2023/09/16 06:44:30;;;;;;;8.10;7.30;;;;;;;20.69;88.23;98000.53;5090599;23;20588;-96
2023/09/16 06:46:34;;;;;;;8.63;7.70;;;;;;;20.90;89.01;98004.31;5064138;23;20579;-95
2023/09/16 06:48:38;;;;;;;9.10;7.93;;;;;;;21.09;88.42;98002.06;5064829;23;20592;-92
2023/09/16 06:50:40;;;;;;;12.30;8.60;;;;;;;21.23;87.31;98006.69;5088906;23;20605;-91
2023/09/16 06:52:44;;;;;;;8.70;7.80;;;;;;;21.38;87.45;98016.41;5086024;23;21156;-91
2023/09/16 06:54:48;;;;;;;8.80;7.90;;;;;;;21.51;87.32;98011.38;5083187;23;20575;-90
2023/09/16 06:56:53;;;;;;;8.70;7.83;;;;;;;21.62;85.90;98013.66;5062347;23;20621;-91
2023/09/16 06:58:56;;;;;;;8.93;7.80;;;;;;;21.78;85.97;98010.88;5087690;23;20579;-91
2023/09/16 07:01:08;;;;;;;10.70;7.60;;;;;;;21.91;86.65;98017.28;5088539;23;20563;-91
2023/09/16 07:03:10;;;;;;;7.83;7.13;;;;;;;22.08;85.19;98010.00;5063842;23;20559;-92
2023/09/16 07:05:14;;;;;;;10.20;7.47;;;;;;;22.21;84.66;98020.91;5063843;23;20715;-93
2023/09/16 07:07:17;;;;;;;7.80;6.90;;;;;;;22.33;84.20;98021.13;5062562;23;21341;-93
2023/09/16 07:09:20;;;;;;;8.13;7.30;;;;;;;22.37;82.65;98022.44;5088699;23;20572;-94
2023/09/16 07:11:23;;;;;;;8.43;7.27;;;;;;;22.49;83.33;98028.97;5086288;23;20626;-94
2023/09/16 07:13:28;;;;;;;7.77;6.67;;;;;;;22.62;81.30;98020.38;5087468;23;21206;-91
2023/09/16 07:15:31;;;;;;;9.77;7.70;;;;;;;22.81;84.18;98018.03;5061621;23;20582;-92
2023/09/16 07:17:35;;;;;;;9.30;8.33;;;;;;;22.87;80.50;98009.31;5062818;23;21136;-91
2023/09/16 07:19:38;;;;;;;9.30;7.60;;;;;;;22.91;80.21;97999.94;5085798;23;20587;-93
2023/09/16 07:21:41;;;;;;;8.30;7.40;;;;;;;22.94;81.08;98005.78;5088194;23;21109;-90
2023/09/16 07:23:44;;;;;;;8.20;6.83;;;;;;;23.09;81.71;98003.91;5087839;23;20572;-91
2023/09/16 07:25:55;;;;;;;9.00;8.10;;;;;;;23.23;81.36;98008.44;5087050;23;20603;-88
2023/09/16 07:27:58;;;;;;;10.43;8.40;;;;;;;23.38;81.40;98010.06;5087655;23;20570;-90
2023/09/16 07:30:01;;;;;;;9.03;8.20;;;;;;;23.47;80.00;98014.28;5063415;23;21262;-90
2023/09/16 07:32:05;;;;;;;8.87;8.07;;;;;;;23.52;79.87;98011.88;5088965;23;20584;-90
2023/09/16 07:34:08;;;;;;;8.53;7.63;;;;;;;23.69;82.67;98014.16;5087862;23;20593;-93
2023/09/16 07:36:11;;;;;;;8.30;7.50;;;;;;;23.90;80.82;98022.16;5089787;23;20681;-91
2023/09/16 07:38:15;;;;;;;9.10;8.20;;;;;;;23.95;79.72;98026.94;5083916;23;20577;-89
2023/09/16 07:40:18;;;;;;;8.20;7.00;;;;;;;24.13;80.26;98020.19;5063030;23;20657;-90
2023/09/16 07:42:22;;;;;;;9.10;8.20;;;;;;;24.27;80.20;98022.75;5087386;23;20557;-90
2023/09/16 07:44:26;;;;;;;8.73;7.03;;;;;;;24.46;81.28;98019.50;5090089;23;21187;-90
2023/09/16 07:46:31;;;;;;;8.03;7.20;;;;;;;24.57;78.89;98021.63;5062842;23;21241;-89
2023/09/16 07:48:34;;;;;;;8.30;7.37;;;;;;;24.64;79.78;98018.00;5064299;23;20910;-88
2023/09/16 07:50:37;;;;;;;8.10;7.37;;;;;;;24.75;79.40;98014.78;5064603;23;21209;-91
2023/09/16 07:52:40;;;;;;;10.37;7.40;;;;;;;24.82;78.61;98017.50;5065208;23;21036;-91
2023/09/16 07:54:44;;;;;;;9.73;8.17;;;;;;;24.93;78.63;98016.97;5066244;23;20579;-91
2023/09/16 07:56:47;;;;;;;8.00;7.20;;;;;;;25.05;77.63;98010.06;5062327;23;20706;-91
2023/09/16 07:58:50;;;;;;;11.90;7.77;;;;;;;24.97;77.30;98016.34;5064326;23;21108;-90
2023/09/16 08:00:53;;;;;;;9.63;8.67;;;;;;;24.96;79.96;98004.06;5089653;23;20966;-90
2023/09/16 08:02:58;;;;;;;10.27;8.03;;;;;;;25.09;78.69;98014.81;5040169;23;20661;-91
2023/09/16 08:05:01;;;;;;;9.90;8.03;;;;;;;25.13;78.11;98012.59;5085838;23;20619;-90
2023/09/16 08:07:05;;;;;;;9.27;8.30;;;;;;;25.23;79.07;98014.72;5060755;23;20696;-90
2023/09/16 08:09:08;;;;;;;10.27;8.50;;;;;;;25.32;77.27;98013.53;5064912;23;20562;-90
2023/09/16 08:11:12;;;;;;;7.93;7.10;;;;;;;25.42;78.39;98018.50;5038560;23;20591;-90
2023/09/16 08:13:14;;;;;;;8.63;7.83;;;;;;;25.46;76.58;98015.25;5041472;23;20613;-90
2023/09/16 08:15:17;;;;;;;8.00;7.20;;;;;;;25.57;75.88;98016.53;5041440;23;21155;-90
2023/09/16 08:17:21;;;;;;;9.40;7.70;;;;;;;25.56;76.51;98018.38;5063575;23;20566;-90
2023/09/16 08:19:26;;;;;;;9.77;8.87;;;;;;;25.69;76.69;98011.28;5064290;23;20582;-90
2023/09/16 08:21:29;;;;;;;8.73;7.83;;;;;;;25.66;75.87;98016.16;5061592;23;20572;-90
2023/09/16 08:23:33;;;;;;;8.90;8.00;;;;;;;25.71;77.47;98008.41;5061555;23;20595;-90
2023/09/16 08:25:36;;;;;;;10.63;7.57;;;;;;;25.86;78.34;98007.22;5087946;23;20981;-90
2023/09/16 08:27:40;;;;;;;8.00;7.20;;;;;;;25.93;75.77;98012.56;5038095;23;20595;-90
2023/09/16 08:29:43;;;;;;;8.23;7.47;;;;;;;25.89;75.24;98003.28;5040028;23;20774;-90
2023/09/16 08:31:46;;;;;;;7.87;7.17;;;;;;;25.95;76.58;98005.16;5039991;23;20634;-90
2023/09/16 08:33:50;;;;;;;8.50;7.70;;;;;;;26.03;76.06;97999.63;5063818;23;21031;-90
2023/09/16 08:35:54;;;;;;;8.33;7.53;;;;;;;26.15;76.65;98006.84;5089264;23;20636;-90
2023/09/16 08:38:00;;;;;;;7.83;7.10;;;;;;;26.25;76.17;98013.47;5062938;23;20605;-90
2023/09/16 08:40:03;;;;;;;8.43;7.60;;;;;;;26.26;75.47;98009.72;5089255;23;20617;-90
2023/09/16 08:42:12;;;;;;;10.70;6.80;;;;;;;26.32;76.37;98013.50;5065395;23;20722;-90
2023/09/16 08:44:19;;;;;;;8.07;7.27;;;;;;;26.44;75.90;98020.69;5083321;23;20590;-90
2023/09/16 08:46:22;;;;;;;7.80;7.03;;;;;;;26.53;76.85;98024.81;5062046;23;21321;-90
2023/09/16 08:48:26;;;;;;;8.00;7.20;;;;;;;26.69;79.08;98024.41;5065301;23;20583;-90
2023/09/16 08:50:31;;;;;;;7.50;6.80;;;;;;;26.85;77.49;98021.31;5088865;23;20588;-90
2023/09/16 08:52:41;;;;;;;8.40;7.47;;;;;;;26.91;76.14;98020.50;5089170;23;21325;-90
2023/09/16 08:54:46;;;;;;;8.20;7.40;;;;;;;27.06;78.73;98019.25;5087342;23;21115;-90
2023/09/16 08:56:49;;;;;;;7.97;7.27;;;;;;;27.21;77.07;98018.00;5089351;23;20574;-90
2023/09/16 08:58:53;;;;;;;7.50;6.80;;;;;;;27.33;76.70;98013.59;5087581;23;20601;-88
2023/09/16 09:00:56;;;;;;;7.17;6.47;;;;;;;27.39;75.16;98015.44;5089004;23;20615;-87
2023/09/16 09:03:00;;;;;;;7.50;6.80;;;;;;;27.47;74.05;98017.91;5062843;23;20618;-90
2023/09/16 09:05:06;;;;;;;7.83;7.13;;;;;;;27.58;75.82;98022.66;5062754;23;20623;-90
2023/09/16 09:07:09;;;;;;;8.30;7.17;;;;;;;27.63;74.66;98018.31;5062602;23;20631;-90
2023/09/16 09:09:14;;;;;;;7.57;6.80;;;;;;;27.75;76.34;98019.25;5086056;23;20579;-90
2023/09/16 09:11:18;;;;;;;8.50;7.13;;;;;;;27.82;75.77;98012.00;5085126;23;21305;-89
2023/09/16 09:13:22;;;;;;;7.60;6.80;;;;;;;27.93;76.34;98023.94;5085924;23;20578;-90
2023/09/16 09:15:26;;;;;;;8.40;7.10;;;;;;;27.94;75.23;98025.59;5085701;23;20579;-89
2023/09/16 09:17:33;;;;;;;7.83;7.13;;;;;;;27.90;74.49;98021.66;5060759;23;20679;-90
2023/09/16 09:19:37;;;;;;;7.50;6.80;;;;;;;27.87;75.24;98020.22;5087724;23;20649;-90
2023/09/16 09:21:41;;;;;;;8.30;7.60;;;;;;;27.89;74.56;98018.19;5089949;23;20655;-91
2023/09/16 09:23:44;;;;;;;7.60;6.90;;;;;;;27.94;75.21;98007.63;5090679;23;21107;-91
2023/09/16 09:25:48;;;;;;;6.90;6.30;;;;;;;28.00;74.70;98022.03;5087762;23;20600;-91
2023/09/16 09:27:53;;;;;;;7.30;6.60;;;;;;;27.97;74.95;98019.78;5090564;23;20653;-91
2023/09/16 09:29:56;;;;;;;8.00;7.30;;;;;;;27.96;74.98;98020.81;5088352;23;20927;-90
2023/09/16 09:31:59;;;;;;;7.47;6.77;;;;;;;27.97;75.31;98025.16;5089593;23;20564;-91
2023/09/16 09:34:03;;;;;;;8.20;7.50;;;;;;;28.00;75.40;98026.34;5064958;23;20584;-90
2023/09/16 09:36:13;;;;;;;7.27;6.57;;;;;;;28.06;74.28;98025.50;5113955;23;20673;-90
2023/09/16 09:38:19;;;;;;;7.20;6.50;;;;;;;28.04;72.78;98010.66;5090829;23;20575;-90
2023/09/16 09:40:23;;;;;;;7.67;6.30;;;;;;;28.07;74.02;98011.06;5064750;23;20727;-90
2023/09/16 09:42:27;;;;;;;7.33;6.47;;;;;;;28.12;72.30;98018.50;5087356;23;20573;-91
2023/09/16 09:44:32;;;;;;;7.83;7.13;;;;;;;28.11;71.54;98016.84;5090037;23;20574;-91
2023/09/16 09:46:34;;;;;;;7.80;7.10;;;;;;;28.07;72.41;98021.78;5064238;23;20667;-90
2023/09/16 09:48:38;;;;;;;6.90;6.27;;;;;;;28.01;72.64;98011.91;5089343;23;20584;-90
2023/09/16 09:50:41;;;;;;;8.17;7.40;;;;;;;28.05;72.43;98013.13;5065392;23;20675;-88
2023/09/16 09:52:47;;;;;;;7.20;6.60;;;;;;;28.09;72.21;98013.56;5040969;23;20585;-88
2023/09/16 09:54:52;;;;;;;6.83;6.27;;;;;;;28.11;72.28;98003.41;5091268;23;20637;-88
2023/09/16 09:56:55;;;;;;;6.80;6.20;;;;;;;28.21;75.87;98004.59;5040996;23;21140;-88
2023/09/16 09:59:00;;;;;;;7.10;6.50;;;;;;;28.24;72.48;97998.78;5066019;23;20593;-88
2023/09/16 10:01:03;;;;;;;7.07;6.40;;;;;;;28.29;74.37;98004.31;5065041;23;20561;-88
2023/09/16 10:03:06;;;;;;;7.10;6.50;;;;;;;28.36;72.45;98004.28;5040285;23;20579;-88
2023/09/16 10:05:13;;;;;;;6.70;6.10;;;;;;;28.40;71.79;98000.94;5040078;23;20699;-88
2023/09/16 10:07:17;;;;;;;6.73;5.83;;;;;;;28.39;72.67;98001.97;5064888;23;20588;-88
2023/09/16 10:09:21;;;;;;;6.37;5.83;;;;;;;28.43;71.06;97994.31;5088072;23;21059;-90
2023/09/16 10:11:28;;;;;;;7.70;7.00;;;;;;;28.49;72.74;97988.88;5063362;23;20568;-89